createdAt,value
2023-05-15T00:00:32.823Z,6.00
2023-05-15T00:03:00.628Z,5.37
2023-05-15T00:05:29.933Z,5.37
2023-05-15T00:07:57.795Z,5.73
2023-05-15T00:10:25.440Z,5.53
2023-05-15T00:12:53.114Z,5.23
2023-05-15T00:15:20.800Z,5.23
2023-05-15T00:17:48.525Z,5.80
2023-05-15T00:20:16.382Z,5.30
2023-05-15T00:22:45.678Z,5.23
2023-05-15T00:25:13.451Z,5.20
2023-05-15T00:27:41.110Z,5.80
2023-05-15T00:30:10.109Z,5.53
2023-05-15T00:32:37.821Z,5.27
2023-05-15T00:35:06.394Z,5.70
2023-05-15T00:37:34.138Z,5.53
2023-05-15T00:40:03.256Z,5.03
2023-05-15T00:42:31.578Z,5.67
2023-05-15T00:45:01.865Z,5.80
2023-05-15T00:47:30.523Z,5.37
2023-05-15T00:49:58.706Z,5.27
2023-05-15T00:52:27.622Z,5.70
2023-05-15T00:54:55.344Z,5.03
2023-05-15T00:57:27.408Z,5.20
2023-05-15T00:59:57.813Z,5.03
2023-05-15T01:02:25.659Z,4.87
2023-05-15T01:04:53.571Z,4.77
2023-05-15T01:07:21.557Z,4.80
2023-05-15T01:09:51.333Z,5.03
2023-05-15T01:12:20.774Z,5.10
2023-05-15T01:14:53.800Z,5.80
2023-05-15T01:17:21.490Z,4.63
2023-05-15T01:19:52.489Z,4.77
2023-05-15T01:22:40.237Z,4.27
2023-05-15T01:25:53.971Z,5.23
2023-05-15T01:28:31.690Z,5.10
2023-05-15T01:31:06.323Z,4.33
2023-05-15T01:33:36.919Z,5.40
2023-05-15T01:36:12.117Z,4.60
2023-05-15T01:38:48.898Z,5.20
2023-05-15T01:41:19.731Z,5.20
2023-05-15T01:43:55.676Z,5.13
2023-05-15T01:46:25.069Z,5.37
2023-05-15T01:48:54.618Z,4.87
2023-05-15T01:51:23.942Z,5.50
2023-05-15T01:53:52.330Z,4.53
2023-05-15T01:56:22.442Z,5.27
2023-05-15T01:58:53.546Z,4.83
2023-05-15T02:01:21.924Z,4.53
2023-05-15T02:03:50.307Z,4.77
2023-05-15T02:06:18.068Z,4.73
2023-05-15T02:08:48.161Z,4.53
2023-05-15T02:11:16.351Z,4.60
2023-05-15T02:13:44.471Z,4.43
2023-05-15T02:16:13.616Z,4.43
2023-05-15T02:18:41.541Z,4.90
2023-05-15T02:21:09.719Z,5.10
2023-05-15T02:23:37.403Z,4.40
2023-05-15T02:26:14.999Z,5.00
2023-05-15T02:28:49.071Z,5.07
2023-05-15T02:31:29.693Z,4.73
2023-05-15T02:34:04.548Z,4.43
2023-05-15T02:36:37.286Z,5.07
2023-05-15T02:39:05.522Z,5.20
2023-05-15T02:41:34.426Z,4.90
2023-05-15T02:44:02.668Z,5.20
2023-05-15T02:46:33.258Z,4.40
2023-05-15T02:49:01.790Z,5.00
2023-05-15T02:51:30.085Z,4.70
2023-05-15T02:54:00.775Z,4.87
2023-05-15T02:56:28.603Z,4.70
2023-05-15T02:58:56.750Z,4.50
2023-05-15T03:01:24.537Z,4.63
2023-05-15T03:03:53.860Z,4.57
2023-05-15T03:06:21.508Z,4.67
2023-05-15T03:08:49.237Z,5.53
2023-05-15T03:11:19.262Z,4.70
2023-05-15T03:13:46.978Z,4.30
2023-05-15T03:16:14.584Z,4.60
2023-05-15T03:18:42.488Z,4.60
2023-05-15T03:21:11.584Z,5.60
2023-05-15T03:23:39.309Z,4.80
2023-05-15T03:26:07.004Z,4.60
2023-05-15T03:28:34.950Z,4.77
2023-05-15T03:31:04.749Z,4.23
2023-05-15T03:33:33.492Z,4.73
2023-05-15T03:36:01.265Z,4.53
2023-05-15T03:38:30.815Z,4.70
2023-05-15T03:40:59.008Z,4.50
2023-05-15T03:43:26.656Z,5.43
2023-05-15T03:45:54.377Z,4.67
2023-05-15T03:48:22.070Z,4.77
2023-05-15T03:50:49.848Z,4.90
2023-05-15T03:53:17.569Z,4.70
2023-05-15T03:55:46.689Z,4.50
2023-05-15T03:58:14.506Z,4.50
2023-05-15T04:00:42.250Z,4.50
2023-05-15T04:03:10.029Z,4.93
2023-05-15T04:05:37.852Z,4.40
2023-05-15T04:08:06.068Z,4.50
2023-05-15T04:10:33.887Z,4.97
2023-05-15T04:13:02.931Z,5.47
2023-05-15T04:15:30.864Z,5.87
2023-05-15T04:17:58.709Z,5.07
2023-05-15T04:20:26.437Z,4.73
2023-05-15T04:22:54.429Z,4.87
2023-05-15T04:25:22.453Z,5.23
2023-05-15T04:27:50.431Z,4.77
2023-05-15T04:30:19.515Z,5.43
2023-05-15T04:32:47.259Z,5.30
2023-05-15T04:35:15.669Z,4.87
2023-05-15T04:37:45.698Z,4.47
2023-05-15T04:40:15.043Z,5.33
2023-05-15T04:42:43.180Z,4.47
2023-05-15T04:45:11.279Z,5.60
2023-05-15T04:47:40.776Z,5.30
2023-05-15T04:50:09.094Z,4.37
2023-05-15T04:52:37.044Z,5.00
2023-05-15T04:55:05.609Z,4.53
2023-05-15T04:57:33.418Z,5.23
2023-05-15T05:00:01.136Z,4.87
2023-05-15T05:02:29.234Z,5.97
2023-05-15T05:04:58.438Z,5.80
2023-05-15T05:07:26.219Z,5.57
2023-05-15T05:09:54.137Z,5.80
2023-05-15T05:12:21.793Z,6.10
2023-05-15T05:14:49.572Z,5.87
2023-05-15T05:17:17.305Z,6.40
2023-05-15T05:19:45.028Z,5.73
2023-05-15T05:22:14.117Z,5.30
2023-05-15T05:24:42.091Z,5.43
2023-05-15T05:27:09.827Z,5.37
2023-05-15T05:29:38.213Z,5.87
2023-05-15T05:32:06.882Z,6.10
2023-05-15T05:34:34.522Z,5.90
2023-05-15T05:37:02.329Z,6.13
2023-05-15T05:39:31.408Z,6.60
2023-05-15T05:41:59.123Z,6.47
2023-05-15T05:44:26.946Z,5.93
2023-05-15T05:46:55.883Z,6.87
2023-05-15T05:49:23.604Z,5.83
2023-05-15T05:51:51.439Z,6.57
2023-05-15T05:54:19.245Z,6.47
2023-05-15T05:56:48.649Z,7.27
2023-05-15T05:59:16.327Z,7.30
2023-05-15T06:01:44.045Z,6.50
2023-05-15T06:04:11.888Z,7.83
2023-05-15T06:06:41.163Z,8.27
2023-05-15T06:09:09.419Z,7.10
2023-05-15T06:11:37.198Z,8.00
2023-05-15T06:14:08.385Z,8.03
2023-05-15T06:16:36.248Z,7.30
2023-05-15T06:19:04.142Z,7.07
2023-05-15T06:21:32.052Z,8.50
2023-05-15T06:23:59.785Z,8.03
2023-05-15T06:26:27.633Z,7.23
2023-05-15T06:28:55.598Z,7.63
2023-05-15T06:31:24.749Z,6.40
2023-05-15T06:33:52.500Z,7.77
2023-05-15T06:36:20.293Z,6.90
2023-05-15T06:38:47.997Z,7.00
2023-05-15T06:41:15.723Z,6.50
2023-05-15T06:43:43.425Z,6.60
2023-05-15T06:46:11.224Z,7.27
2023-05-15T06:48:40.334Z,6.60
2023-05-15T06:51:08.144Z,6.83
2023-05-15T06:53:35.828Z,5.70
2023-05-15T06:56:03.533Z,5.90
2023-05-15T06:58:31.252Z,6.40
2023-05-15T07:00:59.507Z,5.87
2023-05-15T07:03:28.759Z,5.00
2023-05-15T07:05:57.921Z,5.67
2023-05-15T07:08:26.010Z,5.57
2023-05-15T07:10:54.156Z,5.67
2023-05-15T07:13:22.374Z,5.60
2023-05-15T07:15:50.235Z,5.40
2023-05-15T07:18:18.037Z,4.50
2023-05-15T07:20:45.823Z,5.20
2023-05-15T07:23:14.977Z,4.90
2023-05-15T07:25:42.859Z,5.27
2023-05-15T07:28:11.270Z,4.60
2023-05-15T07:30:38.984Z,4.70
2023-05-15T07:33:06.848Z,5.13
2023-05-15T07:35:34.643Z,4.80
2023-05-15T07:38:02.968Z,4.90
2023-05-15T07:40:32.805Z,4.50
2023-05-15T07:43:00.617Z,4.53
2023-05-15T07:45:28.914Z,4.37
2023-05-15T07:47:58.695Z,3.97
2023-05-15T07:50:26.630Z,3.73
2023-05-15T07:52:54.328Z,3.57
2023-05-15T07:55:22.399Z,4.33
2023-05-15T07:57:54.052Z,4.10
2023-05-15T08:00:22.784Z,4.60
2023-05-15T08:02:50.652Z,3.80
2023-05-15T08:05:18.498Z,3.93
2023-05-15T08:07:46.718Z,4.20
2023-05-15T08:10:14.500Z,3.57
2023-05-15T08:12:46.183Z,3.73
2023-05-15T08:15:15.583Z,3.63
2023-05-15T08:17:43.468Z,4.27
2023-05-15T08:20:11.964Z,4.17
2023-05-15T08:22:39.604Z,3.70
2023-05-15T08:25:08.881Z,3.93
2023-05-15T08:27:36.567Z,3.63
2023-05-15T08:30:05.102Z,4.33
2023-05-15T08:32:34.284Z,3.93
2023-05-15T08:35:02.211Z,3.33
2023-05-15T08:37:30.306Z,4.30
2023-05-15T08:39:58.005Z,3.40
2023-05-15T08:42:34.094Z,3.60
2023-05-15T08:45:02.525Z,3.73
2023-05-15T08:47:30.379Z,3.50
2023-05-15T08:50:06.803Z,3.80
2023-05-15T08:52:35.346Z,4.17
2023-05-15T08:55:04.392Z,4.40
2023-05-15T08:57:34.427Z,4.47
2023-05-15T09:00:06.108Z,4.47
2023-05-15T09:02:35.767Z,4.97
2023-05-15T09:05:05.492Z,5.10
2023-05-15T09:07:34.096Z,3.63
2023-05-15T09:10:03.493Z,4.43
2023-05-15T09:12:35.088Z,3.60
2023-05-15T09:15:13.894Z,4.37
2023-05-15T09:17:43.183Z,4.10
2023-05-15T09:20:27.796Z,4.60
2023-05-15T09:22:55.554Z,5.20
2023-05-15T09:25:40.450Z,5.10
2023-05-15T09:28:10.588Z,4.60
2023-05-15T09:30:39.280Z,4.30
2023-05-15T09:33:07.144Z,4.97
2023-05-15T09:35:37.828Z,5.90
2023-05-15T09:38:10.352Z,5.10
2023-05-15T09:40:39.788Z,4.93
2023-05-15T09:43:07.725Z,5.30
2023-05-15T09:45:35.404Z,4.23
2023-05-15T09:48:06.783Z,5.33
2023-05-15T09:50:37.680Z,5.00
2023-05-15T09:53:06.762Z,4.87
2023-05-15T09:55:36.206Z,4.67
2023-05-15T09:58:09.184Z,5.17
2023-05-15T10:00:48.610Z,4.80
2023-05-15T10:03:20.125Z,4.70
2023-05-15T10:05:49.525Z,4.20
2023-05-15T10:08:26.975Z,4.87
2023-05-15T10:10:55.207Z,4.40
2023-05-15T10:13:24.019Z,4.73
2023-05-15T10:15:53.774Z,4.17
2023-05-15T10:18:26.190Z,4.73
2023-05-15T10:20:57.955Z,4.47
2023-05-15T10:23:26.859Z,4.30
2023-05-15T10:26:03.036Z,4.23
2023-05-15T10:28:32.317Z,5.37
2023-05-15T10:31:02.274Z,4.40
2023-05-15T10:33:30.836Z,4.50
2023-05-15T10:36:00.334Z,4.43
2023-05-15T10:38:31.615Z,4.30
2023-05-15T10:41:16.086Z,4.87
2023-05-15T10:43:45.898Z,4.10
2023-05-15T10:46:15.098Z,4.60
2023-05-15T10:48:43.797Z,4.60
2023-05-15T10:51:18.052Z,3.67
2023-05-15T10:53:46.649Z,3.47
2023-05-15T10:56:16.529Z,3.30
2023-05-15T10:58:48.429Z,3.20
2023-05-15T11:01:37.594Z,3.40
2023-05-15T11:04:10.855Z,3.70
2023-05-15T11:06:41.388Z,3.20
2023-05-15T11:09:35.169Z,3.87
2023-05-15T11:12:04.239Z,3.13
2023-05-15T11:14:32.986Z,3.50
2023-05-15T11:17:03.841Z,3.00
2023-05-15T11:20:04.177Z,3.27
2023-05-15T11:22:36.099Z,3.27
2023-05-15T11:25:09.950Z,3.47
2023-05-15T11:27:41.051Z,3.27
2023-05-15T11:30:11.699Z,3.90
2023-05-15T11:33:00.930Z,2.70
2023-05-15T11:35:30.461Z,3.13
2023-05-15T11:38:00.922Z,3.40
2023-05-15T11:40:30.439Z,3.70
2023-05-15T11:43:03.661Z,3.17
2023-05-15T11:45:33.107Z,3.13
2023-05-15T11:48:03.299Z,3.23
2023-05-15T11:50:33.290Z,3.30
2023-05-15T11:53:05.570Z,3.40
2023-05-15T11:55:34.921Z,3.30
2023-05-15T11:58:04.178Z,3.37
2023-05-15T12:00:32.281Z,3.40
2023-05-15T12:03:00.248Z,3.60
2023-05-15T12:05:28.031Z,3.23
2023-05-15T12:07:55.975Z,3.50
2023-05-15T12:10:25.546Z,3.57
2023-05-15T12:12:53.555Z,3.07
2023-05-15T12:15:21.293Z,3.33
2023-05-15T12:17:49.586Z,3.03
2023-05-15T12:20:18.854Z,3.50
2023-05-15T12:22:46.799Z,3.30
2023-05-15T12:25:17.685Z,3.83
2023-05-15T12:27:47.037Z,4.20
2023-05-15T12:30:15.782Z,4.30
2023-05-15T12:32:44.104Z,3.80
2023-05-15T12:35:12.750Z,4.20
2023-05-15T12:37:41.177Z,3.80
2023-05-15T12:40:10.691Z,3.50
2023-05-15T12:42:42.690Z,3.30
2023-05-15T12:45:16.320Z,4.70
2023-05-15T12:47:45.945Z,4.33
2023-05-15T12:50:17.942Z,4.37
2023-05-15T12:52:52.228Z,4.37
2023-05-15T12:55:23.846Z,3.53
2023-05-15T12:57:51.968Z,4.17
2023-05-15T13:00:22.929Z,4.07
2023-05-15T13:02:52.164Z,4.50
2023-05-15T13:05:20.343Z,3.87
2023-05-15T13:07:49.084Z,3.90
2023-05-15T13:10:16.876Z,3.90
2023-05-15T13:12:46.721Z,4.00
2023-05-15T13:15:27.967Z,4.13
2023-05-15T13:18:00.118Z,3.80
2023-05-15T13:20:28.983Z,4.20
2023-05-15T13:22:57.146Z,4.20
2023-05-15T13:25:24.905Z,4.80
2023-05-15T13:27:52.897Z,4.40
2023-05-15T13:30:20.819Z,4.47
2023-05-15T13:32:50.139Z,4.50
2023-05-15T13:35:17.963Z,4.37
2023-05-15T13:37:45.775Z,4.53
2023-05-15T13:40:14.494Z,4.90
2023-05-15T13:42:43.732Z,4.67
2023-05-15T13:45:13.511Z,4.47
2023-05-15T13:47:41.528Z,6.67
2023-05-15T13:50:12.740Z,5.50
2023-05-15T13:52:41.663Z,4.90
2023-05-15T13:55:10.796Z,5.20
2023-05-15T13:57:38.986Z,5.33
2023-05-15T14:00:09.304Z,5.13
2023-05-15T14:02:37.136Z,4.53
2023-05-15T14:05:05.746Z,5.17
2023-05-15T14:07:34.966Z,4.77
2023-05-15T14:10:03.188Z,5.20
2023-05-15T14:12:31.006Z,5.27
2023-05-15T14:14:59.463Z,4.43
2023-05-15T14:17:27.938Z,4.93
2023-05-15T14:19:56.230Z,4.70
2023-05-15T14:22:29.311Z,4.80
2023-05-15T14:24:58.836Z,4.70
2023-05-15T14:27:27.095Z,4.87
2023-05-15T14:29:56.627Z,4.50
2023-05-15T14:32:25.029Z,4.57
2023-05-15T14:34:52.840Z,4.20
2023-05-15T14:37:20.596Z,4.40
2023-05-15T14:39:48.520Z,4.10
2023-05-15T14:42:19.585Z,5.10
2023-05-15T14:44:47.334Z,4.73
2023-05-15T14:47:15.099Z,4.17
2023-05-15T14:49:43.187Z,4.70
2023-05-15T14:52:11.943Z,5.37
2023-05-15T14:54:40.717Z,4.73
2023-05-15T14:57:08.733Z,5.27
2023-05-15T14:59:37.913Z,5.00
2023-05-15T15:02:06.298Z,5.37
2023-05-15T15:04:34.950Z,5.07
2023-05-15T15:07:05.729Z,5.13
2023-05-15T15:09:33.484Z,4.30
2023-05-15T15:12:01.297Z,4.80
2023-05-15T15:14:29.015Z,5.10
2023-05-15T15:16:58.125Z,4.40
2023-05-15T15:19:25.980Z,5.00
2023-05-15T15:21:53.798Z,4.60
2023-05-15T15:24:21.523Z,4.27
2023-05-15T15:26:49.199Z,5.27
2023-05-15T15:29:17.104Z,4.30
2023-05-15T15:31:44.940Z,4.00
2023-05-15T15:34:14.149Z,4.30
2023-05-15T15:36:43.468Z,4.13
2023-05-15T15:39:13.199Z,4.40
2023-05-15T15:41:40.974Z,4.53
2023-05-15T15:44:08.642Z,3.67
2023-05-15T15:46:36.325Z,3.93
2023-05-15T15:49:05.284Z,5.30
2023-05-15T15:51:35.708Z,5.70
2023-05-15T15:54:03.783Z,6.07
2023-05-15T15:56:31.449Z,6.23
2023-05-15T15:58:59.263Z,5.37
2023-05-15T16:01:27.030Z,5.93
2023-05-15T16:03:54.784Z,5.60
2023-05-15T16:06:22.599Z,5.53
2023-05-15T16:08:52.225Z,4.80
2023-05-15T16:11:19.944Z,5.23
2023-05-15T16:13:47.642Z,5.13
2023-05-15T16:16:15.418Z,5.17
2023-05-15T16:18:43.221Z,5.47
2023-05-15T16:21:11.120Z,5.33
2023-05-15T16:23:40.475Z,5.30
2023-05-15T16:26:10.933Z,5.47
2023-05-15T16:28:38.670Z,5.73
2023-05-15T16:31:06.642Z,6.90
2023-05-15T16:33:34.518Z,5.60
2023-05-15T16:36:04.993Z,5.50
2023-05-15T16:38:32.661Z,4.97
2023-05-15T16:41:00.451Z,3.87
2023-05-15T16:43:29.713Z,4.23
2023-05-15T16:45:57.544Z,4.10
2023-05-15T16:48:26.338Z,3.97
2023-05-15T16:50:55.875Z,3.53
2023-05-15T16:53:23.873Z,2.87
2023-05-15T16:55:51.792Z,3.27
2023-05-15T16:58:20.541Z,3.27
2023-05-15T17:00:50.225Z,2.87
2023-05-15T17:03:19.064Z,3.33
2023-05-15T17:05:47.352Z,2.67
2023-05-15T17:08:15.093Z,2.80
2023-05-15T17:10:42.915Z,2.40
2023-05-15T17:13:10.859Z,2.60
2023-05-15T17:15:38.565Z,2.47
2023-05-15T17:18:07.687Z,2.60
2023-05-15T17:20:35.685Z,2.60
2023-05-15T17:23:03.377Z,2.57
2023-05-15T17:25:31.055Z,2.90
2023-05-15T17:27:58.944Z,2.60
2023-05-15T17:30:26.881Z,3.20
2023-05-15T17:32:55.058Z,2.67
2023-05-15T17:35:24.541Z,2.87
2023-05-15T17:37:52.671Z,3.80
2023-05-15T17:40:20.526Z,3.57
2023-05-15T17:42:48.923Z,3.20
2023-05-15T17:45:17.329Z,3.10
2023-05-15T17:47:45.211Z,2.93
2023-05-15T17:50:13.123Z,3.70
2023-05-15T17:52:42.261Z,3.57
2023-05-15T17:55:10.741Z,4.10
2023-05-15T17:57:38.569Z,3.50
2023-05-15T18:00:08.465Z,4.30
2023-05-15T18:02:36.236Z,3.70
2023-05-15T18:05:04.320Z,3.80
2023-05-15T18:07:32.117Z,3.80
2023-05-15T18:10:01.217Z,4.00
2023-05-15T18:12:29.030Z,4.20
2023-05-15T18:14:56.711Z,4.03
2023-05-15T18:17:24.782Z,4.10
2023-05-15T18:19:52.750Z,4.37
2023-05-15T18:22:20.590Z,3.73
2023-05-15T18:24:48.429Z,4.43
2023-05-15T18:27:17.491Z,4.40
2023-05-15T18:29:45.697Z,4.13
2023-05-15T18:32:13.634Z,4.07
2023-05-15T18:34:41.362Z,4.67
2023-05-15T18:37:09.015Z,3.80
2023-05-15T18:39:38.662Z,4.70
2023-05-15T18:42:07.037Z,4.63
2023-05-15T18:44:36.193Z,4.50
2023-05-15T18:47:04.289Z,5.53
2023-05-15T18:49:32.092Z,5.90
2023-05-15T18:52:00.049Z,5.10
2023-05-15T18:54:27.875Z,4.50
2023-05-15T18:56:55.686Z,5.30
2023-05-15T18:59:23.450Z,4.37
2023-05-15T19:01:53.839Z,5.10
2023-05-15T19:04:21.606Z,5.00
2023-05-15T19:06:50.339Z,5.00
2023-05-15T19:09:18.924Z,5.23
2023-05-15T19:11:47.451Z,5.10
2023-05-15T19:14:17.103Z,5.87
2023-05-15T19:16:45.261Z,6.03
2023-05-15T19:19:14.565Z,5.50
2023-05-15T19:21:42.296Z,5.83
2023-05-15T19:24:10.439Z,5.90
2023-05-15T19:26:38.208Z,5.20
2023-05-15T19:29:06.096Z,5.80
2023-05-15T19:31:34.147Z,6.37
2023-05-15T19:34:01.987Z,5.20
2023-05-15T19:36:31.293Z,5.77
2023-05-15T19:38:59.106Z,5.17
2023-05-15T19:41:26.966Z,5.10
2023-05-15T19:43:54.739Z,5.40
2023-05-15T19:46:22.530Z,5.93
2023-05-15T19:48:50.251Z,5.50
2023-05-15T19:51:17.998Z,5.07
2023-05-15T19:53:47.039Z,5.43
2023-05-15T19:56:14.858Z,5.87
2023-05-15T19:58:42.642Z,5.43
2023-05-15T20:01:10.512Z,5.67
2023-05-15T20:03:39.377Z,5.40
2023-05-15T20:06:07.234Z,5.43
2023-05-15T20:08:34.918Z,5.10
2023-05-15T20:11:04.267Z,5.20
2023-05-15T20:13:32.024Z,5.80
2023-05-15T20:16:00.912Z,6.00
2023-05-15T20:18:30.366Z,4.93
2023-05-15T20:21:00.116Z,5.43
2023-05-15T20:23:27.892Z,5.00
2023-05-15T20:25:55.675Z,5.30
2023-05-15T20:28:25.847Z,5.20
2023-05-15T20:30:54.697Z,5.80
2023-05-15T20:33:22.551Z,5.50
2023-05-15T20:35:51.378Z,4.77
2023-05-15T20:38:19.219Z,5.40
2023-05-15T20:40:47.636Z,5.13
2023-05-15T20:43:16.234Z,5.53
2023-05-15T20:45:45.387Z,5.30
2023-05-15T20:48:13.831Z,5.17
2023-05-15T20:50:41.653Z,6.23
2023-05-15T20:53:09.363Z,5.40
2023-05-15T20:55:37.454Z,5.30
2023-05-15T20:58:05.448Z,5.70
2023-05-15T21:00:33.332Z,6.00
2023-05-15T21:03:03.114Z,6.90
2023-05-15T21:05:30.931Z,6.07
2023-05-15T21:07:58.976Z,6.10
2023-05-15T21:10:27.199Z,5.93
2023-05-15T21:12:56.547Z,7.90
2023-05-15T21:15:26.542Z,6.13
2023-05-15T21:17:54.311Z,6.43
2023-05-15T21:20:23.476Z,5.47
2023-05-15T21:22:51.272Z,6.13
2023-05-15T21:25:19.228Z,5.80
2023-05-15T21:27:47.039Z,6.97
2023-05-15T21:30:15.561Z,6.20
2023-05-15T21:32:43.390Z,6.10
2023-05-15T21:35:11.156Z,6.70
2023-05-15T21:37:40.269Z,6.43
2023-05-15T21:40:09.216Z,6.90
2023-05-15T21:42:36.976Z,6.10
2023-05-15T21:45:06.728Z,6.40
2023-05-15T21:47:34.833Z,6.53
2023-05-15T21:50:02.595Z,6.43
2023-05-15T21:52:30.327Z,6.50
2023-05-15T21:54:59.543Z,5.63
2023-05-15T21:57:27.305Z,6.80
2023-05-15T21:59:54.982Z,5.73
2023-05-15T22:02:22.836Z,6.47
2023-05-15T22:04:50.751Z,6.10
2023-05-15T22:07:18.563Z,6.20
2023-05-15T22:09:46.227Z,6.90
2023-05-15T22:12:15.474Z,6.37
2023-05-15T22:14:54.712Z,6.80
2023-05-15T22:17:27.102Z,7.10
2023-05-15T22:19:55.956Z,6.00
2023-05-15T22:22:23.628Z,6.80
2023-05-15T22:24:51.274Z,6.83
2023-05-15T22:27:20.543Z,6.60
2023-05-15T22:29:48.269Z,6.53
2023-05-15T22:32:16.014Z,7.00
2023-05-15T22:34:43.689Z,7.33
2023-05-15T22:37:11.875Z,7.03
2023-05-15T22:39:39.687Z,7.50
2023-05-15T22:42:08.088Z,7.33
2023-05-15T22:44:37.147Z,7.90
2023-05-15T22:47:05.076Z,6.80
2023-05-15T22:49:32.761Z,6.70
2023-05-15T22:52:00.951Z,6.53
2023-05-15T22:54:28.691Z,7.30
2023-05-15T22:56:56.422Z,8.33
2023-05-15T22:59:24.115Z,7.77
2023-05-15T23:01:53.369Z,7.60
2023-05-15T23:04:21.161Z,8.10
2023-05-15T23:06:48.944Z,7.90
2023-05-15T23:09:16.737Z,7.50
2023-05-15T23:11:44.511Z,7.83
2023-05-15T23:14:12.537Z,7.63
2023-05-15T23:16:40.201Z,7.77
2023-05-15T23:19:09.589Z,7.20
2023-05-15T23:21:37.878Z,8.03
2023-05-15T23:24:06.094Z,7.90
2023-05-15T23:26:33.909Z,8.03
2023-05-15T23:29:01.625Z,7.80
2023-05-15T23:31:29.393Z,8.23
2023-05-15T23:33:57.177Z,7.17
2023-05-15T23:36:26.224Z,9.27
2023-05-15T23:38:53.938Z,7.40
2023-05-15T23:41:22.843Z,8.93
2023-05-15T23:43:50.799Z,8.60
2023-05-15T23:46:18.646Z,7.70
2023-05-15T23:48:46.330Z,7.93
2023-05-15T23:51:14.067Z,8.10
2023-05-15T23:53:43.131Z,8.30
2023-05-15T23:56:10.860Z,7.67
2023-05-15T23:58:38.541Z,7.83
